Terminal Aerodrome Forecast
Issued by NWS Sioux Falls, SD

Home | Current Version | Previous Version | Text Only | Print | Product List | Glossary On
Versions: 1 2 3 4 5 6 7 8 9 10 11 12 13 14 15 16 17 18 19
000
FTUS43 KFSD 191853 CCA
TAFFSD
TAF COR
KFSD 191853Z 1919/2018 15018G27KT P6SM SCT025
     FM192300 15017G25KT P6SM BKN040
     FM200100 15015G23KT P6SM BKN060
     FM200400 16013KT P6SM BKN070
     FM200500 21009KT P6SM TSRA OVC040CB
     FM200700 24010KT P6SM BKN040
     FM201200 29006KT P6SM FEW200=

USA.gov is the U.S. government's official web portal to all federal, state and local government web resources and services.